Avondale, Colorado
Current Conditions -  °F | °C
As of 1:53 AM on Saturday 22 Nov 2014 (Local Time) from KPUB Reporting Station
Clear Clear  
Wind Chill: 24°   Ceiling: Unl
Heat Index: 29°   Visibility: 10mi
Dew Point: 23°   Wind: 5mph
Humidity: 78%   Direction: 230°SW
Pressure: 29.97"   Gusts: NA
Location:  38.24°N, 104.35°W
Report Text: KPUB 220853Z AUTO 23004KT 10SM CLR M02/M05 A2997 RMK AO2 SLP141 T10171050 58008
Loading
Personal Weather Stations






























Interactive Weather Map New forecast layout! Learn more

10-Day Weather Forecast

Advertisements
Track Severe Weather on mobile